Gale Warning
Issued at: 5:00 PM TODAY , 05 April 2017
Gale Warning # 10 (Final)
For:

Gale Warning in PDF file





Monthly Climate Assessment and Outlook

Issued: 04 May 2017

Monthly Rainfall Forecast
RAINFALL FORECAST  (May - September 2017) 
UPDATED: 05 April 2017 (next update 26 May 2017)


Regional Rainfall Forecast
Issued: 05 April 2017
Valid for: April-September 2017
Farm Weather Forecast and Advisories
ISSUED              :  8AM, FRIDAY, MAY 26, 2017
VALID UNTIL      :  8AM, SATURDAY, MAY 27, 2017
FWFA:  N0. 17-146


Ten-Day Regional Agri-Weather Information

DEKAD NO. 15 May 21 - 31, 2017

PHILIPPINE AGRI-WEATHER FORECAST

The weather systems that will affect the whole country are frontal system, easterlies, southwest monsoon and intertropical convergence zone (ITCZ).

Throughout the dekadal period, Northern Luzon especially Ilocos Region, CAR, Cagayan Valley will be cloudy with light to moderate rains and isolated thunderstorms. Mindanao will experience cloudy skies with rainshowers and isolated thunderstorms due to enhanced convection brought by ITCZ. While the rest of the country will have fair weather with possible isolated rainshowers or thunderstorms mostly in the evening or afternoon.

Light to moderate winds coming from southeast to east will prevail over Mindanao, Visayas and eastern section of the country and from southwest over western section especially of Northern Luzon.

During the forecast period, the coastal waters throughout the whole country will be slight to moderate seas.

The eastern and central equatorial Pacific is in neutral condition.


Seasonal Climate Outlook
Issued:  20 January 2017
FOR January - June 2017
PDF 




Astronomical Diary
Issue for May 2017
The month of May marks the occurrence of Eta Aquarid meteor shower...




   PAGASA webmail  Learning Tools  Bidding 

  Training Activities  Vacancy  Research-and-Development

  Engineering  faqupdate  Publications 
TAF RPLL

261100Z 2612/2718 29008KT 9999 FEW025 SCT100 TX33/2706Z TN26/2621Z TEMPO 2612/2618 24006KT 9000 –SHRA FEW022CB SCT023 BKN090 TEMPO 2618/2624 VRB02KT FEW023 BKN100 TEMPO 2706/2712 20012KT 9000 –SHRA FEW023CB SCT025 BKN100=

TAF RPVM

261100Z 2612/2718 21007KT 9999 FEW020 SCT100 BKN300 TEMPO 2612/2618 15005KT 9000 –SHRA SCT018CB SCT020 BKN100 TEMPO 2618/2624 16005KT FEW020 BKN250=

TAF RPLC

261100Z 2612/2718 32008KT 9999 SCT020 BKN100 TX32/2706Z TN25/2621Z TEMPO 2612/2618 12010KT 7000 –TSRA FEW015CB  SCT020 OVC100 TEMPO 2618/2624 19005KT FEW020 BKN300=

TAF RPLB

261100Z 2612/2712 19006KT 9999 FEW020 SCT080 BKN300 TX32/2706Z TN25/2622Z TEMPO 2612/2618 15009KT 8000 –TSRA  FEW018CB FEW020 BKN080=

TAF RPLI

261100Z 2612/2712 22008KT 9999 FEW019 SCT100 BKN290 TEMPO 2612/2618 25004KT 8000 -TSRA SCT018CB BKN100=

TAF RPVP

261100Z 2612/2712 18006KT 9999 FEW020 SCT080 BKN240 TEMPO 2612/2618 16004KT 9000 -TSRA FEW017CB SCT019 BKN080=

TAF RPVD

261100Z 2612/2712 18006KT 9999 FEW015 SCT080 BKN220 TEMPO 2612/2618 14004KT 9000 –SHRA FEW014CB SCT015 OVC080=

TAF RPMR

261100Z 2612/2712 18006KT 9999 FEW020 SCT250 TEMPO 2612/2618 12004KT 9000 –SHRA FEW018CB SCT020 BKN080=

TAF RPMD

261100Z 2612/2712 18007KT 9999 FEW016 SCT090 BKN290 TEMPO 2612/2618 15004KT 9000 -SHRA SCT015CB BKN090=

TAF RPMZ

261100Z 2612/2712 24004KT 9999 FEW017 SCT100 BKN300 TEMPO 2612/2618 16002KT 9000 -SHRA SCT017CB BKN100=

RPLL FORECAST TAKE-OFF CONDITION
TIME

(UTC)

WIND

(dddffKT)

TEMP

(°C)

QNH

(hPa)

TIME

(UTC)

WIND

(dddffKT)

TEMP

(°C)

QNH

(hPa)

1200

29003KT

28.0

1009.0

1600

26003KT

27.5

1008.0

1300

28004KT

28.0

1009.0

1700

25004KT

27.5

1008.0

1400

27004KT

27.5

1009.0

1800

24003KT

27.0

1007.5

1500

26005KT

27.5

1009.0

1900

24002KT

27.0

1007.0

ISSUED AT NAIA AMSS-WD/PAGASA-DOST FOR 1100UTC 26 MAY 2017

PREPARED BY:            CHH
CHECKED BY:              AYN
meteopilippinas

PUBLIC WARNING 


It has come to the attention of the Office of the Administrator of PAGASA that a certain person has been using the name of Dr. Vicente B. Malano to solicit money from the contractors of PAGASA.

Dr. Malano wishes to inform the public that he has not authorized anyone to solicit money on his behalf and to warn everyone against dealing with unscrupulous activities of certain individuals.



payong pagasa on android The latest version of the official PAGASA app can now be downloaded on Google play store

Weather Division is now  ISO 9001:2008 Certified
Proof has been furnished by means of an audit that the requirements of ISO 9001:2008 are met.

Read more ...


PRESS RELEASE
24 May 2017

START OF SOUTHWEST MONSOON

Southwesterly windflow has been dominant over the West Philippine Sea for several days now. This is due to the formation of semi-permanent trough over Northern Luzon-Taiwan area and the eastward migration of the North Pacific High Pressure Area which are the prominent indicators of the southwest monsoon onset in the country. 

Likewise, the prevailing weather condition in most parts of Luzon and Visayas particularly the western section is now warm and humid as characterized by occasional to frequent occurrences of afternoon-evening or early morning rainshowers and thunderstorms. These developments signify the approaching onset of rainy season under Type 1 climate covering the western parts of Luzon and Visayas.


Read more ...
DOST-PAGASA S&T Release

17 May 2017

To further strengthen its weather forecasting capabilities, the Philippine Atmospheric, Geophysical, and Astronomical Services Administration (PAGASA), in partnership with the Korea International Cooperation Agency (KOICA), inaugurates the new Communication, Ocean and Meteorological Satellite (COMS) Data Analysis System at the PAGASA Weather and Flood Forecasting Center in Quezon City.


Read more ...